sensor_id;sensor_type;location;lat;lon;timestamp;temperature;humidity
65826;DHT22;52586;-43.152;172.732;2023-04-06T00:00:56;21.10;52.70
65826;DHT22;52586;-43.152;172.732;2023-04-06T00:03:27;21.10;52.70
65826;DHT22;52586;-43.152;172.732;2023-04-06T00:06:00;21.10;52.60
65826;DHT22;52586;-43.152;172.732;2023-04-06T00:08:30;21.10;52.70
65826;DHT22;52586;-43.152;172.732;2023-04-06T00:11:01;21.10;52.60
65826;DHT22;52586;-43.152;172.732;2023-04-06T00:13:32;21.10;52.60
65826;DHT22;52586;-43.152;172.732;2023-04-06T00:16:02;21.10;52.60
65826;DHT22;52586;-43.152;172.732;2023-04-06T00:18:33;21.10;52.80
65826;DHT22;52586;-43.152;172.732;2023-04-06T00:21:06;21.10;52.90
65826;DHT22;52586;-43.152;172.732;2023-04-06T00:23:37;21.10;53.00
65826;DHT22;52586;-43.152;172.732;2023-04-06T00:26:08;21.10;52.70
65826;DHT22;52586;-43.152;172.732;2023-04-06T00:28:38;21.20;52.80
65826;DHT22;52586;-43.152;172.732;2023-04-06T00:31:09;21.20;52.80
65826;DHT22;52586;-43.152;172.732;2023-04-06T00:33:39;21.20;52.80
65826;DHT22;52586;-43.152;172.732;2023-04-06T00:36:12;21.20;52.70
65826;DHT22;52586;-43.152;172.732;2023-04-06T00:38:42;21.20;52.80
65826;DHT22;52586;-43.152;172.732;2023-04-06T00:41:13;21.20;52.70
65826;DHT22;52586;-43.152;172.732;2023-04-06T00:43:44;21.20;52.60
65826;DHT22;52586;-43.152;172.732;2023-04-06T00:46:15;21.20;52.70
65826;DHT22;52586;-43.152;172.732;2023-04-06T00:48:45;21.20;52.60
65826;DHT22;52586;-43.152;172.732;2023-04-06T00:51:18;21.20;52.60
65826;DHT22;52586;-43.152;172.732;2023-04-06T00:53:48;21.20;52.60
65826;DHT22;52586;-43.152;172.732;2023-04-06T00:56:19;21.20;52.70
65826;DHT22;52586;-43.152;172.732;2023-04-06T00:58:53;21.20;52.70
65826;DHT22;52586;-43.152;172.732;2023-04-06T01:01:25;21.30;52.70
65826;DHT22;52586;-43.152;172.732;2023-04-06T01:03:56;21.30;52.70
65826;DHT22;52586;-43.152;172.732;2023-04-06T01:06:28;21.30;52.60
65826;DHT22;52586;-43.152;172.732;2023-04-06T01:08:59;21.30;52.60
65826;DHT22;52586;-43.152;172.732;2023-04-06T01:11:29;21.30;52.60
65826;DHT22;52586;-43.152;172.732;2023-04-06T01:14:00;21.30;52.60
65826;DHT22;52586;-43.152;172.732;2023-04-06T01:16:31;21.30;52.60
65826;DHT22;52586;-43.152;172.732;2023-04-06T01:19:01;21.40;52.60
65826;DHT22;52586;-43.152;172.732;2023-04-06T01:21:39;21.40;52.60
65826;DHT22;52586;-43.152;172.732;2023-04-06T01:24:12;21.40;52.60
65826;DHT22;52586;-43.152;172.732;2023-04-06T01:26:43;21.40;52.60
65826;DHT22;52586;-43.152;172.732;2023-04-06T01:29:14;21.40;52.50
65826;DHT22;52586;-43.152;172.732;2023-04-06T01:31:44;21.40;52.50
65826;DHT22;52586;-43.152;172.732;2023-04-06T01:34:15;21.40;52.50
65826;DHT22;52586;-43.152;172.732;2023-04-06T01:36:46;21.40;52.50
65826;DHT22;52586;-43.152;172.732;2023-04-06T01:39:19;21.40;52.50
65826;DHT22;52586;-43.152;172.732;2023-04-06T01:41:49;21.40;52.40
65826;DHT22;52586;-43.152;172.732;2023-04-06T01:44:20;21.40;52.40
65826;DHT22;52586;-43.152;172.732;2023-04-06T01:46:50;21.40;52.40
65826;DHT22;52586;-43.152;172.732;2023-04-06T01:49:21;21.40;52.30
65826;DHT22;52586;-43.152;172.732;2023-04-06T01:51:51;21.40;52.30
65826;DHT22;52586;-43.152;172.732;2023-04-06T01:54:24;21.40;52.30
65826;DHT22;52586;-43.152;172.732;2023-04-06T01:56:55;21.50;52.30
65826;DHT22;52586;-43.152;172.732;2023-04-06T01:59:25;21.40;52.30
65826;DHT22;52586;-43.152;172.732;2023-04-06T02:01:56;21.50;52.30
65826;DHT22;52586;-43.152;172.732;2023-04-06T02:04:26;21.50;52.20
65826;DHT22;52586;-43.152;172.732;2023-04-06T02:06:57;21.50;52.20
65826;DHT22;52586;-43.152;172.732;2023-04-06T02:09:29;21.50;52.10
65826;DHT22;52586;-43.152;172.732;2023-04-06T02:12:00;21.50;52.10
65826;DHT22;52586;-43.152;172.732;2023-04-06T02:14:31;21.50;52.00
65826;DHT22;52586;-43.152;172.732;2023-04-06T02:17:01;21.50;52.00
65826;DHT22;52586;-43.152;172.732;2023-04-06T02:19:32;21.50;52.00
65826;DHT22;52586;-43.152;172.732;2023-04-06T02:22:03;21.40;51.90
65826;DHT22;52586;-43.152;172.732;2023-04-06T02:24:35;21.40;51.80
65826;DHT22;52586;-43.152;172.732;2023-04-06T02:27:06;21.50;51.90
65826;DHT22;52586;-43.152;172.732;2023-04-06T02:29:36;21.40;51.80
65826;DHT22;52586;-43.152;172.732;2023-04-06T02:32:07;21.40;51.80
65826;DHT22;52586;-43.152;172.732;2023-04-06T02:34:38;21.40;51.80
65826;DHT22;52586;-43.152;172.732;2023-04-06T02:37:08;21.40;51.80
65826;DHT22;52586;-43.152;172.732;2023-04-06T02:39:41;21.50;51.80
65826;DHT22;52586;-43.152;172.732;2023-04-06T02:42:12;21.40;51.70
65826;DHT22;52586;-43.152;172.732;2023-04-06T02:44:43;21.40;51.70
65826;DHT22;52586;-43.152;172.732;2023-04-06T02:47:13;21.40;51.70
65826;DHT22;52586;-43.152;172.732;2023-04-06T02:49:44;21.40;51.70
65826;DHT22;52586;-43.152;172.732;2023-04-06T02:52:15;21.40;51.70
65826;DHT22;52586;-43.152;172.732;2023-04-06T02:54:47;21.40;51.70
65826;DHT22;52586;-43.152;172.732;2023-04-06T02:57:18;21.40;51.70
65826;DHT22;52586;-43.152;172.732;2023-04-06T02:59:49;21.40;51.60
65826;DHT22;52586;-43.152;172.732;2023-04-06T03:02:20;21.40;51.60
65826;DHT22;52586;-43.152;172.732;2023-04-06T03:04:50;21.40;51.60
65826;DHT22;52586;-43.152;172.732;2023-04-06T03:07:21;21.40;51.60
65826;DHT22;52586;-43.152;172.732;2023-04-06T03:09:54;21.40;51.60
65826;DHT22;52586;-43.152;172.732;2023-04-06T03:12:25;21.40;51.60
65826;DHT22;52586;-43.152;172.732;2023-04-06T03:14:55;21.40;51.50
65826;DHT22;52586;-43.152;172.732;2023-04-06T03:17:26;21.40;51.60
65826;DHT22;52586;-43.152;172.732;2023-04-06T03:19:56;21.40;51.50
65826;DHT22;52586;-43.152;172.732;2023-04-06T03:22:28;21.40;51.50
65826;DHT22;52586;-43.152;172.732;2023-04-06T03:25:00;21.40;51.50
65826;DHT22;52586;-43.152;172.732;2023-04-06T03:27:31;21.30;51.50
65826;DHT22;52586;-43.152;172.732;2023-04-06T03:30:02;21.30;51.50
65826;DHT22;52586;-43.152;172.732;2023-04-06T03:35:03;21.30;51.50
65826;DHT22;52586;-43.152;172.732;2023-04-06T03:37:34;21.30;51.50
65826;DHT22;52586;-43.152;172.732;2023-04-06T03:40:07;21.30;51.50
65826;DHT22;52586;-43.152;172.732;2023-04-06T03:42:38;21.30;51.50
65826;DHT22;52586;-43.152;172.732;2023-04-06T03:45:09;21.30;51.50
65826;DHT22;52586;-43.152;172.732;2023-04-06T03:47:40;21.30;51.40
65826;DHT22;52586;-43.152;172.732;2023-04-06T03:50:11;21.30;51.50
65826;DHT22;52586;-43.152;172.732;2023-04-06T03:52:42;21.30;51.50
65826;DHT22;52586;-43.152;172.732;2023-04-06T03:55:14;21.30;51.50
65826;DHT22;52586;-43.152;172.732;2023-04-06T03:57:45;21.30;51.50
65826;DHT22;52586;-43.152;172.732;2023-04-06T04:00:16;21.30;51.50
65826;DHT22;52586;-43.152;172.732;2023-04-06T04:02:46;21.20;51.40
65826;DHT22;52586;-43.152;172.732;2023-04-06T04:05:17;21.20;51.40
65826;DHT22;52586;-43.152;172.732;2023-04-06T04:07:52;21.20;51.40
65826;DHT22;52586;-43.152;172.732;2023-04-06T04:10:25;21.20;51.40
65826;DHT22;52586;-43.152;172.732;2023-04-06T04:12:55;21.20;51.40
65826;DHT22;52586;-43.152;172.732;2023-04-06T04:15:26;21.20;51.40
65826;DHT22;52586;-43.152;172.732;2023-04-06T04:17:57;21.20;51.40
65826;DHT22;52586;-43.152;172.732;2023-04-06T04:20:27;21.20;51.40
65826;DHT22;52586;-43.152;172.732;2023-04-06T04:22:58;21.20;52.00
65826;DHT22;52586;-43.152;172.732;2023-04-06T04:25:30;21.10;51.40
65826;DHT22;52586;-43.152;172.732;2023-04-06T04:28:01;21.10;51.40
65826;DHT22;52586;-43.152;172.732;2023-04-06T04:30:32;21.10;51.40
65826;DHT22;52586;-43.152;172.732;2023-04-06T04:33:02;21.10;51.40
65826;DHT22;52586;-43.152;172.732;2023-04-06T04:35:33;21.10;51.40
65826;DHT22;52586;-43.152;172.732;2023-04-06T04:38:07;21.10;51.40
65826;DHT22;52586;-43.152;172.732;2023-04-06T04:40:39;21.10;51.40
65826;DHT22;52586;-43.152;172.732;2023-04-06T04:43:10;21.10;51.40
65826;DHT22;52586;-43.152;172.732;2023-04-06T04:45:41;21.10;51.40
65826;DHT22;52586;-43.152;172.732;2023-04-06T04:48:11;21.10;51.40
65826;DHT22;52586;-43.152;172.732;2023-04-06T04:50:42;21.10;51.40
65826;DHT22;52586;-43.152;172.732;2023-04-06T04:53:13;21.10;51.40
65826;DHT22;52586;-43.152;172.732;2023-04-06T04:55:45;21.00;51.40
65826;DHT22;52586;-43.152;172.732;2023-04-06T04:58:16;21.00;51.40
65826;DHT22;52586;-43.152;172.732;2023-04-06T05:00:48;21.00;51.40
65826;DHT22;52586;-43.152;172.732;2023-04-06T05:03:21;21.00;51.40
65826;DHT22;52586;-43.152;172.732;2023-04-06T05:05:53;21.00;51.50
65826;DHT22;52586;-43.152;172.732;2023-04-06T05:08:24;20.90;51.40
65826;DHT22;52586;-43.152;172.732;2023-04-06T05:10:56;20.90;51.40
65826;DHT22;52586;-43.152;172.732;2023-04-06T05:13:27;21.00;51.50
65826;DHT22;52586;-43.152;172.732;2023-04-06T05:15:58;20.90;51.40
65826;DHT22;52586;-43.152;172.732;2023-04-06T05:18:28;20.90;51.40
65826;DHT22;52586;-43.152;172.732;2023-04-06T05:20:59;20.90;51.40
65826;DHT22;52586;-43.152;172.732;2023-04-06T05:23:30;20.90;51.40
65826;DHT22;52586;-43.152;172.732;2023-04-06T05:26:02;20.90;51.50
65826;DHT22;52586;-43.152;172.732;2023-04-06T05:28:33;20.90;51.50
65826;DHT22;52586;-43.152;172.732;2023-04-06T05:31:04;20.90;51.70
65826;DHT22;52586;-43.152;172.732;2023-04-06T05:33:35;20.90;51.70
65826;DHT22;52586;-43.152;172.732;2023-04-06T05:36:06;20.90;51.70
65826;DHT22;52586;-43.152;172.732;2023-04-06T05:38:37;20.90;51.80
65826;DHT22;52586;-43.152;172.732;2023-04-06T05:41:09;20.90;51.70
65826;DHT22;52586;-43.152;172.732;2023-04-06T05:43:40;20.90;51.80
65826;DHT22;52586;-43.152;172.732;2023-04-06T05:46:11;20.80;51.80
65826;DHT22;52586;-43.152;172.732;2023-04-06T05:48:41;20.90;52.00
65826;DHT22;52586;-43.152;172.732;2023-04-06T05:51:12;20.80;52.00
65826;DHT22;52586;-43.152;172.732;2023-04-06T05:53:43;20.80;51.90
65826;DHT22;52586;-43.152;172.732;2023-04-06T05:56:17;20.80;51.90
65826;DHT22;52586;-43.152;172.732;2023-04-06T05:58:48;20.80;51.90
65826;DHT22;52586;-43.152;172.732;2023-04-06T06:01:18;20.80;51.90
65826;DHT22;52586;-43.152;172.732;2023-04-06T06:03:49;20.80;52.00
65826;DHT22;52586;-43.152;172.732;2023-04-06T06:06:20;20.80;52.00
65826;DHT22;52586;-43.152;172.732;2023-04-06T06:08:50;20.80;52.00
65826;DHT22;52586;-43.152;172.732;2023-04-06T06:11:23;20.80;52.00
65826;DHT22;52586;-43.152;172.732;2023-04-06T06:13:54;20.80;52.00
65826;DHT22;52586;-43.152;172.732;2023-04-06T06:16:24;20.80;52.00
65826;DHT22;52586;-43.152;172.732;2023-04-06T06:18:55;20.80;52.00
65826;DHT22;52586;-43.152;172.732;2023-04-06T06:21:25;20.70;52.00
65826;DHT22;52586;-43.152;172.732;2023-04-06T06:23:56;20.70;52.00
65826;DHT22;52586;-43.152;172.732;2023-04-06T06:26:29;20.70;52.00
65826;DHT22;52586;-43.152;172.732;2023-04-06T06:29:00;20.70;52.10
65826;DHT22;52586;-43.152;172.732;2023-04-06T06:31:30;20.70;52.00
65826;DHT22;52586;-43.152;172.732;2023-04-06T06:34:01;20.70;52.00
65826;DHT22;52586;-43.152;172.732;2023-04-06T06:36:32;20.70;52.00
65826;DHT22;52586;-43.152;172.732;2023-04-06T06:39:03;20.60;51.90
65826;DHT22;52586;-43.152;172.732;2023-04-06T06:41:35;20.60;51.90
65826;DHT22;52586;-43.152;172.732;2023-04-06T06:44:07;20.60;52.00
65826;DHT22;52586;-43.152;172.732;2023-04-06T06:46:37;20.60;52.00
65826;DHT22;52586;-43.152;172.732;2023-04-06T06:49:09;20.60;52.00
65826;DHT22;52586;-43.152;172.732;2023-04-06T06:51:40;20.60;52.00
65826;DHT22;52586;-43.152;172.732;2023-04-06T06:54:11;20.70;52.10
65826;DHT22;52586;-43.152;172.732;2023-04-06T06:56:44;20.60;52.00
65826;DHT22;52586;-43.152;172.732;2023-04-06T06:59:14;20.60;52.00
65826;DHT22;52586;-43.152;172.732;2023-04-06T07:01:45;20.60;52.00
65826;DHT22;52586;-43.152;172.732;2023-04-06T07:04:16;20.60;52.10
65826;DHT22;52586;-43.152;172.732;2023-04-06T07:06:47;20.50;52.10
65826;DHT22;52586;-43.152;172.732;2023-04-06T07:09:18;20.60;52.20
65826;DHT22;52586;-43.152;172.732;2023-04-06T07:11:50;20.50;52.20
65826;DHT22;52586;-43.152;172.732;2023-04-06T07:14:21;20.50;52.10
65826;DHT22;52586;-43.152;172.732;2023-04-06T07:16:52;20.50;52.20
65826;DHT22;52586;-43.152;172.732;2023-04-06T07:19:22;20.50;52.20
65826;DHT22;52586;-43.152;172.732;2023-04-06T07:21:53;20.50;52.20
65826;DHT22;52586;-43.152;172.732;2023-04-06T07:24:24;20.50;52.20
65826;DHT22;52586;-43.152;172.732;2023-04-06T07:26:57;20.40;52.10
65826;DHT22;52586;-43.152;172.732;2023-04-06T07:29:28;20.40;52.10
65826;DHT22;52586;-43.152;172.732;2023-04-06T07:31:59;20.40;52.10
65826;DHT22;52586;-43.152;172.732;2023-04-06T07:34:29;20.40;52.20
65826;DHT22;52586;-43.152;172.732;2023-04-06T07:37:00;20.40;52.20
65826;DHT22;52586;-43.152;172.732;2023-04-06T07:39:31;20.40;52.30
65826;DHT22;52586;-43.152;172.732;2023-04-06T07:42:03;20.30;52.20
65826;DHT22;52586;-43.152;172.732;2023-04-06T07:44:34;20.30;52.20
65826;DHT22;52586;-43.152;172.732;2023-04-06T07:47:04;20.30;52.20
65826;DHT22;52586;-43.152;172.732;2023-04-06T07:49:35;20.30;52.20
65826;DHT22;52586;-43.152;172.732;2023-04-06T07:52:06;20.30;52.30
65826;DHT22;52586;-43.152;172.732;2023-04-06T07:54:36;20.20;52.20
65826;DHT22;52586;-43.152;172.732;2023-04-06T07:57:09;20.20;52.20
65826;DHT22;52586;-43.152;172.732;2023-04-06T07:59:40;20.20;52.30
65826;DHT22;52586;-43.152;172.732;2023-04-06T08:02:10;20.20;52.30
65826;DHT22;52586;-43.152;172.732;2023-04-06T08:04:41;20.20;52.20
65826;DHT22;52586;-43.152;172.732;2023-04-06T08:07:12;20.10;52.20
65826;DHT22;52586;-43.152;172.732;2023-04-06T08:09:42;20.20;52.30
65826;DHT22;52586;-43.152;172.732;2023-04-06T08:12:15;20.20;52.30
65826;DHT22;52586;-43.152;172.732;2023-04-06T08:14:46;20.20;52.30
65826;DHT22;52586;-43.152;172.732;2023-04-06T08:17:16;20.10;52.20
65826;DHT22;52586;-43.152;172.732;2023-04-06T08:19:47;20.10;52.30
65826;DHT22;52586;-43.152;172.732;2023-04-06T08:22:18;20.10;52.30
65826;DHT22;52586;-43.152;172.732;2023-04-06T08:24:48;20.10;52.30
65826;DHT22;52586;-43.152;172.732;2023-04-06T08:27:21;20.00;52.30
65826;DHT22;52586;-43.152;172.732;2023-04-06T08:29:52;20.00;52.30
65826;DHT22;52586;-43.152;172.732;2023-04-06T08:32:22;20.00;52.30
65826;DHT22;52586;-43.152;172.732;2023-04-06T08:34:54;20.00;52.30
65826;DHT22;52586;-43.152;172.732;2023-04-06T08:37:26;20.00;52.30
65826;DHT22;52586;-43.152;172.732;2023-04-06T08:39:57;20.00;52.30
65826;DHT22;52586;-43.152;172.732;2023-04-06T08:42:33;19.90;52.30
65826;DHT22;52586;-43.152;172.732;2023-04-06T08:45:03;20.00;52.30
65826;DHT22;52586;-43.152;172.732;2023-04-06T08:47:36;19.90;52.30
65826;DHT22;52586;-43.152;172.732;2023-04-06T08:50:07;19.90;52.30
65826;DHT22;52586;-43.152;172.732;2023-04-06T08:52:39;19.90;52.30
65826;DHT22;52586;-43.152;172.732;2023-04-06T08:55:10;19.90;52.30
65826;DHT22;52586;-43.152;172.732;2023-04-06T08:57:43;19.90;52.30
65826;DHT22;52586;-43.152;172.732;2023-04-06T09:00:15;19.90;52.30
65826;DHT22;52586;-43.152;172.732;2023-04-06T09:02:47;19.90;52.40
65826;DHT22;52586;-43.152;172.732;2023-04-06T09:05:19;19.90;52.40
65826;DHT22;52586;-43.152;172.732;2023-04-06T09:07:50;19.90;53.00
65826;DHT22;52586;-43.152;172.732;2023-04-06T09:10:21;19.80;52.40
65826;DHT22;52586;-43.152;172.732;2023-04-06T09:13:04;19.80;52.40
65826;DHT22;52586;-43.152;172.732;2023-04-06T09:15:35;19.80;52.40
65826;DHT22;52586;-43.152;172.732;2023-04-06T09:18:06;19.80;52.40
65826;DHT22;52586;-43.152;172.732;2023-04-06T09:20:36;19.80;52.40
65826;DHT22;52586;-43.152;172.732;2023-04-06T09:23:07;19.80;52.40
65826;DHT22;52586;-43.152;172.732;2023-04-06T09:25:47;19.80;52.40
65826;DHT22;52586;-43.152;172.732;2023-04-06T09:28:20;19.70;52.30
65826;DHT22;52586;-43.152;172.732;2023-04-06T09:30:50;19.80;52.30
65826;DHT22;52586;-43.152;172.732;2023-04-06T09:33:23;19.80;52.40
65826;DHT22;52586;-43.152;172.732;2023-04-06T09:35:54;19.70;52.40
65826;DHT22;52586;-43.152;172.732;2023-04-06T09:38:25;19.70;52.30
65826;DHT22;52586;-43.152;172.732;2023-04-06T09:40:55;19.70;52.30
65826;DHT22;52586;-43.152;172.732;2023-04-06T09:43:28;19.70;53.00
65826;DHT22;52586;-43.152;172.732;2023-04-06T09:46:01;19.70;52.30
65826;DHT22;52586;-43.152;172.732;2023-04-06T09:48:35;19.70;52.30
65826;DHT22;52586;-43.152;172.732;2023-04-06T09:51:07;19.60;52.30
65826;DHT22;52586;-43.152;172.732;2023-04-06T09:53:42;19.60;52.30
65826;DHT22;52586;-43.152;172.732;2023-04-06T09:56:18;19.60;52.30
65826;DHT22;52586;-43.152;172.732;2023-04-06T09:58:57;19.60;52.30
65826;DHT22;52586;-43.152;172.732;2023-04-06T10:01:30;19.60;52.30
65826;DHT22;52586;-43.152;172.732;2023-04-06T10:04:16;19.60;52.30
65826;DHT22;52586;-43.152;172.732;2023-04-06T10:06:50;19.60;52.30
65826;DHT22;52586;-43.152;172.732;2023-04-06T10:09:24;19.60;52.30
65826;DHT22;52586;-43.152;172.732;2023-04-06T10:11:56;19.60;52.30
65826;DHT22;52586;-43.152;172.732;2023-04-06T10:14:31;19.60;52.30
65826;DHT22;52586;-43.152;172.732;2023-04-06T10:17:05;19.60;52.30
65826;DHT22;52586;-43.152;172.732;2023-04-06T10:19:49;19.60;52.30
65826;DHT22;52586;-43.152;172.732;2023-04-06T10:22:26;19.60;52.30
65826;DHT22;52586;-43.152;172.732;2023-04-06T10:24:58;19.50;52.30
65826;DHT22;52586;-43.152;172.732;2023-04-06T10:27:29;19.50;52.30
65826;DHT22;52586;-43.152;172.732;2023-04-06T10:30:05;19.50;52.30
65826;DHT22;52586;-43.152;172.732;2023-04-06T10:32:37;19.50;52.30
65826;DHT22;52586;-43.152;172.732;2023-04-06T10:35:10;19.50;52.30
65826;DHT22;52586;-43.152;172.732;2023-04-06T10:37:51;19.50;52.30
65826;DHT22;52586;-43.152;172.732;2023-04-06T10:40:25;19.50;52.30
65826;DHT22;52586;-43.152;172.732;2023-04-06T10:43:08;19.50;52.30
65826;DHT22;52586;-43.152;172.732;2023-04-06T10:45:41;19.50;52.30
65826;DHT22;52586;-43.152;172.732;2023-04-06T10:48:16;19.50;52.40
65826;DHT22;52586;-43.152;172.732;2023-04-06T10:50:48;19.50;52.30
65826;DHT22;52586;-43.152;172.732;2023-04-06T10:53:23;19.50;52.40
65826;DHT22;52586;-43.152;172.732;2023-04-06T10:55:57;19.50;52.30
65826;DHT22;52586;-43.152;172.732;2023-04-06T10:58:28;19.40;52.30
65826;DHT22;52586;-43.152;172.732;2023-04-06T11:01:01;19.40;52.30
65826;DHT22;52586;-43.152;172.732;2023-04-06T11:03:36;19.40;52.30
65826;DHT22;52586;-43.152;172.732;2023-04-06T11:06:19;19.40;52.30
65826;DHT22;52586;-43.152;172.732;2023-04-06T11:08:50;19.40;52.30
65826;DHT22;52586;-43.152;172.732;2023-04-06T11:11:21;19.40;52.30
65826;DHT22;52586;-43.152;172.732;2023-04-06T11:13:54;19.40;52.40
65826;DHT22;52586;-43.152;172.732;2023-04-06T11:16:29;19.40;52.30
65826;DHT22;52586;-43.152;172.732;2023-04-06T11:19:00;19.40;52.30
65826;DHT22;52586;-43.152;172.732;2023-04-06T11:21:35;19.40;52.30
65826;DHT22;52586;-43.152;172.732;2023-04-06T11:24:11;19.40;52.30
65826;DHT22;52586;-43.152;172.732;2023-04-06T11:26:43;19.40;52.30
65826;DHT22;52586;-43.152;172.732;2023-04-06T11:29:15;19.40;52.30
65826;DHT22;52586;-43.152;172.732;2023-04-06T11:31:49;19.40;52.30
65826;DHT22;52586;-43.152;172.732;2023-04-06T11:34:20;19.40;52.30
65826;DHT22;52586;-43.152;172.732;2023-04-06T11:36:55;19.40;52.30
65826;DHT22;52586;-43.152;172.732;2023-04-06T11:39:27;19.30;52.30
65826;DHT22;52586;-43.152;172.732;2023-04-06T11:42:00;19.30;52.30
65826;DHT22;52586;-43.152;172.732;2023-04-06T11:44:33;19.30;52.30
65826;DHT22;52586;-43.152;172.732;2023-04-06T11:47:06;19.30;52.40
65826;DHT22;52586;-43.152;172.732;2023-04-06T11:49:38;19.30;52.30
65826;DHT22;52586;-43.152;172.732;2023-04-06T11:52:17;19.30;52.30
65826;DHT22;52586;-43.152;172.732;2023-04-06T11:54:48;19.30;52.30
65826;DHT22;52586;-43.152;172.732;2023-04-06T11:57:22;19.30;52.30
65826;DHT22;52586;-43.152;172.732;2023-04-06T11:59:53;19.30;52.30
65826;DHT22;52586;-43.152;172.732;2023-04-06T12:02:25;19.30;52.30
65826;DHT22;52586;-43.152;172.732;2023-04-06T12:04:56;19.30;52.30
65826;DHT22;52586;-43.152;172.732;2023-04-06T12:07:26;19.20;52.30
65826;DHT22;52586;-43.152;172.732;2023-04-06T12:09:58;19.20;52.20
65826;DHT22;52586;-43.152;172.732;2023-04-06T12:12:29;19.20;52.20
65826;DHT22;52586;-43.152;172.732;2023-04-06T12:15:00;19.20;52.20
65826;DHT22;52586;-43.152;172.732;2023-04-06T12:17:32;19.20;52.20
65826;DHT22;52586;-43.152;172.732;2023-04-06T12:20:03;19.20;52.20
65826;DHT22;52586;-43.152;172.732;2023-04-06T12:22:34;19.20;52.20
65826;DHT22;52586;-43.152;172.732;2023-04-06T12:25:05;19.20;52.20
65826;DHT22;52586;-43.152;172.732;2023-04-06T12:27:36;19.20;52.20
65826;DHT22;52586;-43.152;172.732;2023-04-06T12:30:07;19.20;52.20
65826;DHT22;52586;-43.152;172.732;2023-04-06T12:32:40;19.20;52.30
65826;DHT22;52586;-43.152;172.732;2023-04-06T12:35:11;19.20;52.30
65826;DHT22;52586;-43.152;172.732;2023-04-06T12:37:43;19.10;52.20
65826;DHT22;52586;-43.152;172.732;2023-04-06T12:40:14;19.10;52.20
65826;DHT22;52586;-43.152;172.732;2023-04-06T12:42:44;19.20;52.20
65826;DHT22;52586;-43.152;172.732;2023-04-06T12:45:15;19.10;52.20
65826;DHT22;52586;-43.152;172.732;2023-04-06T12:47:48;19.10;52.20
65826;DHT22;52586;-43.152;172.732;2023-04-06T12:50:18;19.10;52.20
65826;DHT22;52586;-43.152;172.732;2023-04-06T12:52:49;19.10;52.20
65826;DHT22;52586;-43.152;172.732;2023-04-06T12:55:20;19.10;52.20
65826;DHT22;52586;-43.152;172.732;2023-04-06T12:57:51;19.10;52.20
65826;DHT22;52586;-43.152;172.732;2023-04-06T13:00:22;19.10;52.20
65826;DHT22;52586;-43.152;172.732;2023-04-06T13:02:55;19.10;52.20
65826;DHT22;52586;-43.152;172.732;2023-04-06T13:05:26;19.10;52.20
65826;DHT22;52586;-43.152;172.732;2023-04-06T13:07:56;19.10;52.80
65826;DHT22;52586;-43.152;172.732;2023-04-06T13:10:27;19.00;52.10
65826;DHT22;52586;-43.152;172.732;2023-04-06T13:12:58;19.00;52.10
65826;DHT22;52586;-43.152;172.732;2023-04-06T13:15:28;19.00;52.10
65826;DHT22;52586;-43.152;172.732;2023-04-06T13:18:01;19.00;52.10
65826;DHT22;52586;-43.152;172.732;2023-04-06T13:20:32;19.00;52.10
65826;DHT22;52586;-43.152;172.732;2023-04-06T13:23:03;19.00;52.10
65826;DHT22;52586;-43.152;172.732;2023-04-06T13:25:33;19.00;52.10
65826;DHT22;52586;-43.152;172.732;2023-04-06T13:28:04;19.00;52.10
65826;DHT22;52586;-43.152;172.732;2023-04-06T13:30:35;19.00;52.10
65826;DHT22;52586;-43.152;172.732;2023-04-06T13:33:07;19.00;52.10
65826;DHT22;52586;-43.152;172.732;2023-04-06T13:35:38;18.90;52.10
65826;DHT22;52586;-43.152;172.732;2023-04-06T13:38:09;18.90;52.00
65826;DHT22;52586;-43.152;172.732;2023-04-06T13:40:40;19.00;52.10
65826;DHT22;52586;-43.152;172.732;2023-04-06T13:43:11;18.90;52.10
65826;DHT22;52586;-43.152;172.732;2023-04-06T13:45:42;18.90;52.10
65826;DHT22;52586;-43.152;172.732;2023-04-06T13:48:20;18.90;52.10
65826;DHT22;52586;-43.152;172.732;2023-04-06T13:50:51;18.90;52.10
65826;DHT22;52586;-43.152;172.732;2023-04-06T13:53:22;18.90;52.10
65826;DHT22;52586;-43.152;172.732;2023-04-06T13:55:56;18.90;52.10
65826;DHT22;52586;-43.152;172.732;2023-04-06T13:58:26;18.90;52.10
65826;DHT22;52586;-43.152;172.732;2023-04-06T14:01:03;18.90;52.10
65826;DHT22;52586;-43.152;172.732;2023-04-06T14:03:35;18.90;52.00
65826;DHT22;52586;-43.152;172.732;2023-04-06T14:06:11;18.90;52.10
65826;DHT22;52586;-43.152;172.732;2023-04-06T14:08:42;18.90;52.00
65826;DHT22;52586;-43.152;172.732;2023-04-06T14:11:13;18.80;52.00
65826;DHT22;52586;-43.152;172.732;2023-04-06T14:13:44;18.80;52.00
65826;DHT22;52586;-43.152;172.732;2023-04-06T14:16:15;18.80;52.00
65826;DHT22;52586;-43.152;172.732;2023-04-06T14:18:49;18.80;52.10
65826;DHT22;52586;-43.152;172.732;2023-04-06T14:21:19;18.80;52.10
65826;DHT22;52586;-43.152;172.732;2023-04-06T14:23:50;18.80;52.10
65826;DHT22;52586;-43.152;172.732;2023-04-06T14:26:21;18.80;52.10
65826;DHT22;52586;-43.152;172.732;2023-04-06T14:28:52;18.80;52.10
65826;DHT22;52586;-43.152;172.732;2023-04-06T14:31:22;18.80;52.10
65826;DHT22;52586;-43.152;172.732;2023-04-06T14:33:55;18.80;52.10
65826;DHT22;52586;-43.152;172.732;2023-04-06T14:36:26;18.80;52.10
65826;DHT22;52586;-43.152;172.732;2023-04-06T14:38:58;18.70;52.00
65826;DHT22;52586;-43.152;172.732;2023-04-06T14:41:28;18.70;52.00
65826;DHT22;52586;-43.152;172.732;2023-04-06T14:43:59;18.70;52.00
65826;DHT22;52586;-43.152;172.732;2023-04-06T14:46:30;18.70;52.00
65826;DHT22;52586;-43.152;172.732;2023-04-06T14:49:03;18.70;52.00
65826;DHT22;52586;-43.152;172.732;2023-04-06T14:51:35;18.70;52.00
65826;DHT22;52586;-43.152;172.732;2023-04-06T14:54:06;18.70;52.60
65826;DHT22;52586;-43.152;172.732;2023-04-06T14:56:37;18.70;52.00
65826;DHT22;52586;-43.152;172.732;2023-04-06T14:59:07;18.70;52.10
65826;DHT22;52586;-43.152;172.732;2023-04-06T15:01:38;18.70;52.10
65826;DHT22;52586;-43.152;172.732;2023-04-06T15:04:11;18.60;52.00
65826;DHT22;52586;-43.152;172.732;2023-04-06T15:06:41;18.70;52.10
65826;DHT22;52586;-43.152;172.732;2023-04-06T15:09:12;18.60;52.00
65826;DHT22;52586;-43.152;172.732;2023-04-06T15:11:43;18.70;52.10
65826;DHT22;52586;-43.152;172.732;2023-04-06T15:14:13;18.60;52.00
65826;DHT22;52586;-43.152;172.732;2023-04-06T15:16:44;18.60;52.00